Terminal Aerodrome Forecast
Issued by NWS Twin Cities, MN

Home | Current Version | Previous Version | Graphics & Text | Print | Product List | Glossary On
Versions: 1 2 3 4 5 6 7 8 9 10 11 12 13 14 15 16 17
000
FTUS43 KMPX 222333
TAFSTC
TAF
KSTC 222333Z 2300/2324 16006KT P6SM SCT040
     FM231400 13008KT P6SM BKN080 PROB30 2314/2318 4SM -TSRA
      BKN050CB=

USA.gov is the U.S. government's official web portal to all federal, state and local government web resources and services.